Wetterdaten: Woche 08.09.14 - 14.09.14 (KW37)
Datum Zeit Temp. A. Feuchte A. Luftdruck Regen Wind Richtung Sonnenschein ET UV Solar Taupunkt Windchill Windben
08.09.2014 00:00 14,3 C 96 % 1014,7 hPa 0,0 l/m 2,9 km/h (1 Bft) O-NO 0,00 h 0,000 mm 0,0 UV-I 0 W/m 13,5 C 14,2 C 4,7 km/h (1 Bft)
08.09.2014 01:00 14,3 C 95 % 1014,6 hPa 0,0 l/m 0,3 km/h (0 Bft) O 0,00 h 0,000 mm 0,0 UV-I 0 W/m 13,5 C 14,3 C 1,3 km/h (1 Bft)
08.09.2014 02:00 14,3 C 95 % 1014,5 hPa 0,0 l/m 0,4 km/h (0 Bft) O-NO 0,00 h 0,000 mm 0,0 UV-I 0 W/m 13,5 C 14,3 C 1,1 km/h (0 Bft)
08.09.2014 03:00 14,2 C 95 % 1014,5 hPa 0,0 l/m 0,0 km/h (0 Bft) N 0,00 h 0,000 mm 0,0 UV-I 0 W/m 13,4 C 14,2 C 0,1 km/h (0 Bft)
08.09.2014 04:00 13,9 C 94 % 1014,5 hPa 0,0 l/m 0,0 km/h (0 Bft) N 0,00 h 0,000 mm 0,0 UV-I 0 W/m 13,0 C 13,9 C 0,0 km/h (0 Bft)
08.09.2014 05:00 13,1 C 94 % 1014,4 hPa 0,0 l/m 0,1 km/h (0 Bft) W 0,00 h 0,000 mm 0,0 UV-I 0 W/m 12,2 C 13,1 C 0,3 km/h (0 Bft)
08.09.2014 06:00 12,5 C 94 % 1014,6 hPa 0,0 l/m 0,0 km/h (0 Bft) N 0,00 h 0,000 mm 0,0 UV-I 9 W/m 11,6 C 12,5 C 0,1 km/h (0 Bft)
08.09.2014 07:00 12,5 C 96 % 1015,1 hPa 0,0 l/m 0,2 km/h (0 Bft) W-NW 0,38 h 0,000 mm 0,0 UV-I 38 W/m 11,8 C 12,5 C 1,0 km/h (0 Bft)
08.09.2014 08:00 13,5 C 95 % 1015,4 hPa 0,0 l/m 0,1 km/h (0 Bft) S-SO 0,88 h 0,025 mm 0,6 UV-I 106 W/m 12,8 C 13,5 C 0,3 km/h (0 Bft)
08.09.2014 09:00 16,4 C 90 % 1015,5 hPa 0,0 l/m 1,8 km/h (1 Bft) W-NW 1,00 h 0,051 mm 1,5 UV-I 307 W/m 14,7 C 16,4 C 3,7 km/h (1 Bft)
08.09.2014 10:00 18,8 C 83 % 1015,6 hPa 0,0 l/m 2,9 km/h (1 Bft) W-NW 1,00 h 0,178 mm 2,2 UV-I 339 W/m 15,8 C 18,8 C 5,2 km/h (1 Bft)
08.09.2014 11:00 19,6 C 80 % 1015,6 hPa 0,0 l/m 3,3 km/h (1 Bft) NW 1,00 h 0,203 mm 2,3 UV-I 268 W/m 16,0 C 19,6 C 5,6 km/h (1 Bft)
08.09.2014 12:00 21,1 C 76 % 1015,5 hPa 0,0 l/m 4,3 km/h (1 Bft) W 1,00 h 0,152 mm 4,0 UV-I 573 W/m 16,6 C 21,0 C 6,8 km/h (2 Bft)
08.09.2014 13:00 21,4 C 75 % 1015,3 hPa 0,0 l/m 3,1 km/h (1 Bft) W-NW 1,00 h 0,356 mm 2,5 UV-I 303 W/m 16,8 C 21,5 C 5,3 km/h (1 Bft)
08.09.2014 14:00 21,8 C 72 % 1015,2 hPa 0,0 l/m 4,8 km/h (1 Bft) W-NW 1,00 h 0,178 mm 2,4 UV-I 298 W/m 16,6 C 21,8 C 7,8 km/h (2 Bft)
08.09.2014 15:00 22,5 C 72 % 1014,9 hPa 0,0 l/m 5,2 km/h (1 Bft) W-NW 1,00 h 0,203 mm 2,1 UV-I 322 W/m 17,2 C 22,4 C 8,4 km/h (2 Bft)
08.09.2014 16:00 23,1 C 68 % 1014,5 hPa 0,0 l/m 5,9 km/h (2 Bft) W-NW 1,00 h 0,203 mm 1,6 UV-I 308 W/m 16,8 C 22,8 C 9,2 km/h (2 Bft)
08.09.2014 17:00 22,7 C 66 % 1014,5 hPa 0,0 l/m 6,8 km/h (2 Bft) W-SW 1,00 h 0,229 mm 0,9 UV-I 174 W/m 16,0 C 22,4 C 10,4 km/h (2 Bft)
08.09.2014 18:00 21,8 C 68 % 1014,4 hPa 0,0 l/m 6,7 km/h (2 Bft) NW 0,45 h 0,152 mm 0,5 UV-I 60 W/m 15,6 C 21,4 C 10,3 km/h (2 Bft)
08.09.2014 19:00 20,2 C 74 % 1014,8 hPa 0,0 l/m 0,6 km/h (0 Bft) NW 0,00 h 0,076 mm 0,0 UV-I 18 W/m 15,4 C 20,2 C 1,5 km/h (1 Bft)
08.09.2014 20:00 18,5 C 83 % 1015,1 hPa 0,0 l/m 5,2 km/h (1 Bft) N-NO 0,00 h 0,025 mm 0,0 UV-I 0 W/m 15,5 C 18,3 C 8,0 km/h (2 Bft)
08.09.2014 21:00 17,2 C 88 % 1015,6 hPa 0,0 l/m 1,2 km/h (1 Bft) N 0,00 h 0,026 mm 0,0 UV-I 0 W/m 15,2 C 17,2 C 2,5 km/h (1 Bft)
08.09.2014 22:00 16,0 C 92 % 1016,1 hPa 0,0 l/m 0,1 km/h (0 Bft) N-NW 0,00 h 0,000 mm 0,0 UV-I 0 W/m 14,8 C 16,0 C 0,5 km/h (0 Bft)
08.09.2014 23:00 15,4 C 94 % 1016,4 hPa 0,0 l/m 0,0 km/h (0 Bft) N 0,00 h 0,000 mm 0,0 UV-I 0 W/m 14,5 C 15,4 C 0,3 km/h (0 Bft)
09.09.2014 00:00 15,6 C 94 % 1016,4 hPa 0,0 l/m 0,6 km/h (0 Bft) N-NW 0,00 h 0,000 mm 0,0 UV-I 0 W/m 14,7 C 15,6 C 1,5 km/h (1 Bft)
09.09.2014 01:00 15,3 C 94 % 1016,2 hPa 0,0 l/m 0,1 km/h (0 Bft) N-NW 0,00 h 0,000 mm 0,0 UV-I 0 W/m 14,4 C 15,3 C 0,7 km/h (0 Bft)
09.09.2014 02:00 15,0 C 94 % 1015,8 hPa 0,0 l/m 0,8 km/h (0 Bft) N-NO 0,00 h 0,000 mm 0,0 UV-I 0 W/m 14,0 C 15,0 C 2,3 km/h (1 Bft)
09.09.2014 03:00 14,8 C 95 % 1015,7 hPa 0,0 l/m 1,1 km/h (1 Bft) N 0,00 h 0,000 mm 0,0 UV-I 0 W/m 14,0 C 14,8 C 2,9 km/h (1 Bft)
09.09.2014 04:00 14,6 C 95 % 1015,7 hPa 0,0 l/m 1,4 km/h (1 Bft) N 0,00 h 0,000 mm 0,0 UV-I 0 W/m 13,8 C 14,6 C 3,1 km/h (1 Bft)
09.09.2014 05:00 14,2 C 95 % 1015,8 hPa 0,0 l/m 1,7 km/h (1 Bft) N-NO 0,00 h 0,000 mm 0,0 UV-I 0 W/m 13,4 C 14,1 C 3,2 km/h (1 Bft)
09.09.2014 06:00 13,6 C 95 % 1015,9 hPa 0,0 l/m 1,5 km/h (1 Bft) N 0,00 h 0,000 mm 0,0 UV-I 6 W/m 12,8 C 13,6 C 3,1 km/h (1 Bft)
09.09.2014 07:00 13,6 C 96 % 1016,2 hPa 0,0 l/m 4,4 km/h (1 Bft) N 0,00 h 0,000 mm 0,0 UV-I 21 W/m 13,0 C 13,4 C 7,7 km/h (2 Bft)
09.09.2014 08:00 13,9 C 94 % 1016,4 hPa 0,0 l/m 3,2 km/h (1 Bft) N-NW 0,77 h 0,025 mm 0,5 UV-I 69 W/m 13,0 C 13,8 C 5,9 km/h (2 Bft)
09.09.2014 09:00 14,7 C 90 % 1016,7 hPa 0,0 l/m 4,6 km/h (1 Bft) N 1,00 h 0,025 mm 0,8 UV-I 119 W/m 13,1 C 14,6 C 7,8 km/h (2 Bft)
09.09.2014 10:00 15,2 C 88 % 1017,1 hPa 0,0 l/m 3,1 km/h (1 Bft) N 1,00 h 0,076 mm 1,5 UV-I 219 W/m 13,2 C 15,1 C 5,3 km/h (1 Bft)
09.09.2014 11:00 16,7 C 83 % 1017,2 hPa 0,0 l/m 2,8 km/h (1 Bft) NW 1,00 h 0,127 mm 3,0 UV-I 397 W/m 13,8 C 16,7 C 5,0 km/h (1 Bft)
09.09.2014 12:00 19,5 C 70 % 1016,9 hPa 0,0 l/m 3,7 km/h (1 Bft) NW 1,00 h 0,229 mm 4,4 UV-I 669 W/m 13,8 C 19,4 C 6,6 km/h (2 Bft)
09.09.2014 13:00 20,3 C 58 % 1016,6 hPa 0,0 l/m 5,7 km/h (1 Bft) NW 1,00 h 0,406 mm 3,8 UV-I 498 W/m 11,8 C 20,1 C 9,1 km/h (2 Bft)
09.09.2014 14:00 20,3 C 60 % 1016,3 hPa 0,0 l/m 5,2 km/h (1 Bft) NW 1,00 h 0,330 mm 2,8 UV-I 388 W/m 12,1 C 20,1 C 8,5 km/h (2 Bft)
09.09.2014 15:00 20,9 C 55 % 1015,9 hPa 0,0 l/m 5,5 km/h (1 Bft) N-NW 1,00 h 0,254 mm 2,4 UV-I 409 W/m 11,5 C 20,7 C 9,3 km/h (2 Bft)
09.09.2014 16:00 20,3 C 55 % 1015,7 hPa 0,0 l/m 5,3 km/h (1 Bft) NW 1,00 h 0,279 mm 1,4 UV-I 234 W/m 11,0 C 20,1 C 8,7 km/h (2 Bft)
09.09.2014 17:00 19,7 C 58 % 1015,6 hPa 0,0 l/m 6,0 km/h (2 Bft) N 1,00 h 0,178 mm 0,7 UV-I 151 W/m 11,1 C 19,4 C 9,4 km/h (2 Bft)
09.09.2014 18:00 18,3 C 64 % 1015,6 hPa 0,0 l/m 8,5 km/h (2 Bft) N-NO 0,70 h 0,127 mm 0,0 UV-I 79 W/m 11,5 C 17,3 C 13,0 km/h (3 Bft)
09.09.2014 19:00 16,4 C 72 % 1015,9 hPa 0,0 l/m 4,9 km/h (1 Bft) N-NO 0,00 h 0,102 mm 0,0 UV-I 20 W/m 11,3 C 16,3 C 8,0 km/h (2 Bft)
09.09.2014 20:00 14,7 C 78 % 1016,5 hPa 0,0 l/m 2,7 km/h (1 Bft) N 0,00 h 0,025 mm 0,0 UV-I 0 W/m 10,8 C 14,7 C 4,9 km/h (1 Bft)
09.09.2014 21:00 13,5 C 81 % 1016,8 hPa 0,0 l/m 1,0 km/h (0 Bft) N 0,00 h 0,025 mm 0,0 UV-I 0 W/m 10,2 C 13,5 C 1,8 km/h (1 Bft)
09.09.2014 22:00 12,8 C 84 % 1017,1 hPa 0,0 l/m 0,8 km/h (0 Bft) N 0,00 h 0,025 mm 0,0 UV-I 0 W/m 10,1 C 12,8 C 2,0 km/h (1 Bft)
09.09.2014 23:00 12,3 C 87 % 1017,3 hPa 0,0 l/m 0,1 km/h (0 Bft) O-SO 0,00 h 0,025 mm 0,0 UV-I 0 W/m 10,2 C 12,3 C 0,3 km/h (0 Bft)
10.09.2014 00:00 11,7 C 88 % 1017,3 hPa 0,0 l/m 1,7 km/h (1 Bft) N-NO 0,00 h 0,000 mm 0,0 UV-I 0 W/m 9,8 C 11,7 C 3,6 km/h (1 Bft)
10.09.2014 01:00 11,2 C 90 % 1017,1 hPa 0,0 l/m 0,0 km/h (0 Bft) N 0,00 h 0,000 mm 0,0 UV-I 0 W/m 9,6 C 11,2 C 0,2 km/h (0 Bft)
10.09.2014 02:00 10,8 C 91 % 1016,9 hPa 0,0 l/m 0,3 km/h (0 Bft) N 0,00 h 0,000 mm 0,0 UV-I 0 W/m 9,4 C 10,8 C 0,8 km/h (0 Bft)
10.09.2014 03:00 10,5 C 91 % 1016,9 hPa 0,0 l/m 0,7 km/h (0 Bft) N 0,00 h 0,000 mm 0,0 UV-I 0 W/m 9,1 C 10,5 C 2,0 km/h (1 Bft)
10.09.2014 04:00 10,2 C 92 % 1016,8 hPa 0,0 l/m 0,0 km/h (0 Bft) N-NW 0,00 h 0,000 mm 0,0 UV-I 0 W/m 9,0 C 10,2 C 0,3 km/h (0 Bft)
10.09.2014 05:00 10,2 C 93 % 1016,4 hPa 0,0 l/m 0,2 km/h (0 Bft) N-NW 0,00 h 0,000 mm 0,0 UV-I 0 W/m 9,1 C 10,2 C 0,8 km/h (0 Bft)
10.09.2014 06:00 10,1 C 94 % 1016,1 hPa 0,0 l/m 0,8 km/h (0 Bft) N-NO 0,00 h 0,000 mm 0,0 UV-I 8 W/m 9,2 C 10,1 C 1,8 km/h (1 Bft)
10.09.2014 07:00 10,0 C 94 % 1016,2 hPa 0,0 l/m 0,8 km/h (0 Bft) N-NW 0,37 h 0,000 mm 0,0 UV-I 41 W/m 9,0 C 10,0 C 1,6 km/h (1 Bft)
10.09.2014 08:00 11,6 C 92 % 1016,4 hPa 0,0 l/m 1,8 km/h (1 Bft) N-NW 1,00 h 0,025 mm 0,7 UV-I 130 W/m 10,3 C 11,6 C 3,8 km/h (1 Bft)
10.09.2014 09:00 13,7 C 85 % 1016,3 hPa 0,0 l/m 4,2 km/h (1 Bft) N 1,00 h 0,076 mm 1,2 UV-I 232 W/m 11,2 C 13,7 C 6,9 km/h (2 Bft)
10.09.2014 10:00 15,5 C 78 % 1016,2 hPa 0,0 l/m 3,3 km/h (1 Bft) N 1,00 h 0,127 mm 2,3 UV-I 347 W/m 11,7 C 15,5 C 5,7 km/h (1 Bft)
10.09.2014 11:00 15,9 C 73 % 1016,1 hPa 0,0 l/m 4,9 km/h (1 Bft) N 1,00 h 0,203 mm 2,0 UV-I 191 W/m 11,1 C 15,6 C 7,6 km/h (2 Bft)
10.09.2014 12:00 16,4 C 72 % 1015,9 hPa 0,0 l/m 3,8 km/h (1 Bft) N 1,00 h 0,127 mm 2,0 UV-I 237 W/m 11,3 C 16,1 C 6,7 km/h (2 Bft)
10.09.2014 13:00 16,3 C 68 % 1015,7 hPa 0,0 l/m 6,3 km/h (2 Bft) N-NO 1,00 h 0,152 mm 2,0 UV-I 228 W/m 10,4 C 16,0 C 10,0 km/h (2 Bft)
10.09.2014 14:00 16,6 C 67 % 1015,7 hPa 0,0 l/m 6,1 km/h (2 Bft) N-NW 1,00 h 0,152 mm 1,8 UV-I 216 W/m 10,3 C 16,2 C 9,4 km/h (2 Bft)
10.09.2014 15:00 16,4 C 71 % 1015,6 hPa 0,0 l/m 7,9 km/h (2 Bft) N-NW 1,00 h 0,152 mm 1,3 UV-I 185 W/m 11,1 C 15,5 C 11,7 km/h (2 Bft)
10.09.2014 16:00 16,7 C 67 % 1015,2 hPa 0,0 l/m 6,0 km/h (2 Bft) N-NO 1,00 h 0,127 mm 1,4 UV-I 237 W/m 10,5 C 16,4 C 9,7 km/h (2 Bft)
10.09.2014 17:00 16,6 C 68 % 1014,9 hPa 0,0 l/m 5,8 km/h (2 Bft) N 1,00 h 0,152 mm 0,7 UV-I 143 W/m 10,6 C 16,4 C 9,7 km/h (2 Bft)
10.09.2014 18:00 15,5 C 71 % 1014,9 hPa 0,0 l/m 8,0 km/h (2 Bft) N 0,42 h 0,102 mm 0,5 UV-I 48 W/m 10,3 C 14,6 C 12,6 km/h (3 Bft)
10.09.2014 19:00 14,1 C 76 % 1015,1 hPa 0,0 l/m 7,0 km/h (2 Bft) N-NO 0,00 h 0,051 mm 0,0 UV-I 11 W/m 9,8 C 13,3 C 10,9 km/h (2 Bft)
10.09.2014 20:00 13,4 C 77 % 1015,5 hPa 0,0 l/m 6,5 km/h (2 Bft) N 0,00 h 0,025 mm 0,0 UV-I 0 W/m 9,5 C 12,7 C 10,6 km/h (2 Bft)
10.09.2014 21:00 12,9 C 78 % 1015,7 hPa 0,0 l/m 2,6 km/h (1 Bft) N-NW 0,00 h 0,025 mm 0,0 UV-I 0 W/m 9,3 C 12,9 C 4,9 km/h (1 Bft)
10.09.2014 22:00 12,7 C 79 % 1015,6 hPa 0,0 l/m 0,5 km/h (0 Bft) N 0,00 h 0,028 mm 0,0 UV-I 0 W/m 9,1 C 12,7 C 1,1 km/h (1 Bft)
10.09.2014 23:00 12,2 C 80 % 1015,4 hPa 0,0 l/m 0,3 km/h (0 Bft) N 0,00 h 0,025 mm 0,0 UV-I 0 W/m 8,8 C 12,2 C 0,9 km/h (0 Bft)
11.09.2014 00:00 11,0 C 84 % 1015,4 hPa 0,0 l/m 0,1 km/h (0 Bft) N 0,00 h 0,025 mm 0,0 UV-I 0 W/m 8,3 C 11,0 C 0,9 km/h (0 Bft)
11.09.2014 01:00 9,9 C 87 % 1015,3 hPa 0,0 l/m 0,1 km/h (0 Bft) N-NO 0,00 h 0,000 mm 0,0 UV-I 0 W/m 7,9 C 9,9 C 0,4 km/h (0 Bft)
11.09.2014 02:00 8,9 C 90 % 1015,1 hPa 0,0 l/m 0,1 km/h (0 Bft) S-SO 0,00 h 0,000 mm 0,0 UV-I 0 W/m 7,2 C 8,9 C 0,3 km/h (0 Bft)
11.09.2014 03:00 8,0 C 91 % 1014,7 hPa 0,0 l/m 0,0 km/h (0 Bft) N 0,00 h 0,000 mm 0,0 UV-I 0 W/m 6,6 C 8,0 C 0,0 km/h (0 Bft)
11.09.2014 04:00 7,0 C 91 % 1014,6 hPa 0,0 l/m 0,0 km/h (0 Bft) SO 0,00 h 0,000 mm 0,0 UV-I 0 W/m 5,7 C 7,0 C 0,2 km/h (0 Bft)
11.09.2014 05:00 6,4 C 93 % 1014,2 hPa 0,0 l/m 0,1 km/h (0 Bft) N 0,00 h 0,000 mm 0,0 UV-I 0 W/m 5,3 C 6,4 C 0,2 km/h (0 Bft)
11.09.2014 06:00 5,8 C 93 % 1014,1 hPa 0,0 l/m 0,0 km/h (0 Bft) O-SO 0,00 h 0,000 mm 0,0 UV-I 7 W/m 4,7 C 5,8 C 0,2 km/h (0 Bft)
11.09.2014 07:00 5,8 C 94 % 1014,4 hPa 0,0 l/m 0,2 km/h (0 Bft) NW 0,52 h 0,000 mm 0,0 UV-I 54 W/m 5,0 C 5,8 C 0,7 km/h (0 Bft)
11.09.2014 08:00 8,7 C 93 % 1014,5 hPa 0,0 l/m 0,5 km/h (0 Bft) S-SO 1,00 h 0,025 mm 0,7 UV-I 147 W/m 7,7 C 8,7 C 1,6 km/h (1 Bft)
11.09.2014 09:00 11,4 C 89 % 1014,3 hPa 0,0 l/m 1,8 km/h (1 Bft) NW 1,00 h 0,076 mm 1,1 UV-I 173 W/m 9,5 C 11,4 C 3,5 km/h (1 Bft)
11.09.2014 10:00 13,8 C 79 % 1014,2 hPa 0,0 l/m 0,9 km/h (0 Bft) N-NO 1,00 h 0,076 mm 1,3 UV-I 203 W/m 10,3 C 13,8 C 2,5 km/h (1 Bft)
11.09.2014 11:00 13,7 C 81 % 1014,3 hPa 0,0 l/m 4,3 km/h (1 Bft) N-NO 1,00 h 0,102 mm 0,5 UV-I 71 W/m 10,4 C 13,5 C 6,9 km/h (2 Bft)
11.09.2014 12:00 13,3 C 83 % 1014,4 hPa 0,0 l/m 8,6 km/h (2 Bft) N 1,00 h 0,051 mm 1,0 UV-I 116 W/m 10,5 C 12,0 C 12,7 km/h (3 Bft)
11.09.2014 13:00 14,3 C 78 % 1014,2 hPa 0,0 l/m 10,0 km/h (2 Bft) N-NO 1,00 h 0,076 mm 1,1 UV-I 122 W/m 10,5 C 12,4 C 14,8 km/h (3 Bft)
11.09.2014 14:00 14,6 C 76 % 1014,2 hPa 0,0 l/m 6,8 km/h (2 Bft) N-NO 1,00 h 0,102 mm 0,7 UV-I 82 W/m 10,5 C 13,8 C 11,0 km/h (2 Bft)
11.09.2014 15:00 15,1 C 75 % 1014,3 hPa 0,0 l/m 5,0 km/h (1 Bft) N-NO 1,00 h 0,076 mm 0,8 UV-I 106 W/m 10,7 C 14,9 C 8,4 km/h (2 Bft)
11.09.2014 16:00 15,5 C 74 % 1014,3 hPa 0,0 l/m 6,7 km/h (2 Bft) N-NO 1,00 h 0,076 mm 1,0 UV-I 184 W/m 10,9 C 14,8 C 10,5 km/h (2 Bft)
11.09.2014 17:00 14,8 C 79 % 1014,5 hPa 0,6 l/m 6,1 km/h (2 Bft) N-NO 0,43 h 0,127 mm 0,7 UV-I 65 W/m 11,2 C 14,2 C 9,9 km/h (2 Bft)
11.09.2014 18:00 11,9 C 93 % 1015,1 hPa 1,4 l/m 2,4 km/h (1 Bft) NW 0,00 h 0,051 mm 0,0 UV-I 10 W/m 10,7 C 11,9 C 4,3 km/h (1 Bft)
11.09.2014 19:00 11,8 C 94 % 1015,3 hPa 2,0 l/m 1,1 km/h (1 Bft) NW 0,00 h 0,000 mm 0,0 UV-I 0 W/m 10,9 C 11,8 C 2,3 km/h (1 Bft)
11.09.2014 20:00 11,8 C 95 % 1015,6 hPa 0,0 l/m 0,5 km/h (0 Bft) NW 0,00 h 0,000 mm 0,0 UV-I 0 W/m 11,0 C 11,8 C 1,1 km/h (1 Bft)
11.09.2014 21:00 11,7 C 95 % 1015,9 hPa 0,0 l/m 0,1 km/h (0 Bft) O 0,00 h 0,000 mm 0,0 UV-I 0 W/m 11,0 C 11,7 C 0,6 km/h (0 Bft)
11.09.2014 22:00 11,8 C 96 % 1015,9 hPa 0,0 l/m 2,1 km/h (1 Bft) N 0,00 h 0,000 mm 0,0 UV-I 0 W/m 11,2 C 11,8 C 3,5 km/h (1 Bft)
11.09.2014 23:00 11,8 C 96 % 1015,8 hPa 0,4 l/m 3,4 km/h (1 Bft) N-NW 0,00 h 0,000 mm 0,0 UV-I 0 W/m 11,2 C 11,8 C 5,6 km/h (1 Bft)
12.09.2014 00:00 11,8 C 96 % 1015,7 hPa 1,2 l/m 3,2 km/h (1 Bft) N-NW 0,00 h 0,000 mm 0,0 UV-I 0 W/m 11,2 C 11,8 C 5,4 km/h (1 Bft)
12.09.2014 01:00 11,8 C 96 % 1015,2 hPa 1,2 l/m 3,2 km/h (1 Bft) N-NW 0,00 h 0,000 mm 0,0 UV-I 0 W/m 11,2 C 11,8 C 6,0 km/h (2 Bft)
12.09.2014 02:00 11,7 C 96 % 1014,4 hPa 0,4 l/m 8,2 km/h (2 Bft) N-NW 0,00 h 0,000 mm 0,0 UV-I 0 W/m 11,1 C 10,5 C 13,2 km/h (3 Bft)
12.09.2014 03:00 11,5 C 96 % 1013,6 hPa 0,2 l/m 8,5 km/h (2 Bft) N-NW 0,00 h 0,000 mm 0,0 UV-I 0 W/m 10,8 C 10,0 C 13,2 km/h (3 Bft)
12.09.2014 04:00 11,3 C 95 % 1012,9 hPa 0,8 l/m 9,0 km/h (2 Bft) N 0,00 h 0,000 mm 0,0 UV-I 0 W/m 10,6 C 9,6 C 14,2 km/h (3 Bft)
12.09.2014 05:00 11,4 C 96 % 1012,2 hPa 1,4 l/m 7,8 km/h (2 Bft) N-NW 0,00 h 0,000 mm 0,0 UV-I 0 W/m 10,7 C 10,2 C 12,1 km/h (2 Bft)
12.09.2014 06:00 11,5 C 96 % 1011,4 hPa 1,4 l/m 4,3 km/h (1 Bft) N-NW 0,00 h 0,000 mm 0,0 UV-I 0 W/m 10,9 C 11,4 C 7,5 km/h (2 Bft)
12.09.2014 07:00 11,8 C 97 % 1011,0 hPa 1,2 l/m 6,5 km/h (2 Bft) N-NW 0,00 h 0,000 mm 0,0 UV-I 7 W/m 11,4 C 11,2 C 11,1 km/h (2 Bft)
12.09.2014 08:00 12,3 C 97 % 1010,8 hPa 1,0 l/m 5,8 km/h (1 Bft) N-NO 0,02 h 0,000 mm 0,0 UV-I 22 W/m 11,9 C 11,8 C 10,1 km/h (2 Bft)
12.09.2014 09:00 13,2 C 97 % 1011,1 hPa 0,8 l/m 9,9 km/h (2 Bft) N 0,98 h 0,025 mm 0,7 UV-I 98 W/m 12,7 C 11,3 C 15,3 km/h (3 Bft)
12.09.2014 10:00 13,6 C 96 % 1011,4 hPa 0,6 l/m 9,4 km/h (2 Bft) N 0,98 h 0,051 mm 0,6 UV-I 84 W/m 13,0 C 11,9 C 14,7 km/h (3 Bft)
12.09.2014 11:00 13,6 C 96 % 1011,4 hPa 0,8 l/m 7,7 km/h (2 Bft) N 0,90 h 0,051 mm 0,7 UV-I 76 W/m 13,0 C 12,6 C 12,7 km/h (3 Bft)
12.09.2014 12:00 13,6 C 96 % 1011,3 hPa 1,6 l/m 8,4 km/h (2 Bft) N 0,42 h 0,051 mm 0,7 UV-I 53 W/m 13,0 C 12,2 C 13,2 km/h (3 Bft)
12.09.2014 13:00 13,7 C 96 % 1011,3 hPa 0,2 l/m 11,8 km/h (2 Bft) N 0,90 h 0,025 mm 0,7 UV-I 70 W/m 13,1 C 10,9 C 17,7 km/h (3 Bft)
12.09.2014 14:00 14,1 C 96 % 1011,5 hPa 1,2 l/m 13,1 km/h (3 Bft) N 0,93 h 0,051 mm 0,6 UV-I 69 W/m 13,5 C 10,8 C 19,7 km/h (3 Bft)
12.09.2014 15:00 14,4 C 97 % 1012,2 hPa 2,6 l/m 5,5 km/h (1 Bft) N 0,15 h 0,051 mm 0,5 UV-I 39 W/m 13,9 C 14,1 C 8,4 km/h (2 Bft)
12.09.2014 16:00 14,7 C 97 % 1012,5 hPa 3,0 l/m 6,1 km/h (2 Bft) N-NO 0,03 h 0,025 mm 0,0 UV-I 32 W/m 14,2 C 14,4 C 9,2 km/h (2 Bft)
12.09.2014 17:00 14,8 C 97 % 1013,2 hPa 7,6 l/m 4,5 km/h (1 Bft) N-NO 0,00 h 0,025 mm 0,0 UV-I 12 W/m 14,3 C 14,6 C 8,0 km/h (2 Bft)
12.09.2014 18:00 13,9 C 96 % 1013,9 hPa 2,0 l/m 1,4 km/h (1 Bft) S 0,00 h 0,000 mm 0,0 UV-I 10 W/m 13,2 C 13,9 C 3,2 km/h (1 Bft)
12.09.2014 19:00 13,5 C 96 % 1014,6 hPa 0,2 l/m 0,3 km/h (0 Bft) S-SO 0,00 h 0,000 mm 0,0 UV-I 11 W/m 13,0 C 13,5 C 1,0 km/h (0 Bft)
12.09.2014 20:00 13,4 C 97 % 1015,7 hPa 0,0 l/m 0,1 km/h (0 Bft) S-SO 0,00 h 0,000 mm 0,0 UV-I 0 W/m 12,9 C 13,4 C 0,5 km/h (0 Bft)
12.09.2014 21:00 13,4 C 97 % 1016,5 hPa 0,0 l/m 0,2 km/h (0 Bft) S-SO 0,00 h 0,000 mm 0,0 UV-I 0 W/m 12,9 C 13,4 C 1,0 km/h (0 Bft)
12.09.2014 22:00 13,2 C 97 % 1016,7 hPa 0,0 l/m 0,0 km/h (0 Bft) N 0,00 h 0,001 mm 0,0 UV-I 0 W/m 12,7 C 13,2 C 0,3 km/h (0 Bft)
12.09.2014 23:00 12,8 C 97 % 1017,0 hPa 0,2 l/m 1,1 km/h (0 Bft) N-NO 0,00 h 0,000 mm 0,0 UV-I 0 W/m 12,2 C 12,8 C 2,3 km/h (1 Bft)
13.09.2014 00:00 12,2 C 96 % 1017,7 hPa 0,0 l/m 0,0 km/h (0 Bft) O 0,00 h 0,000 mm 0,0 UV-I 0 W/m 11,6 C 12,2 C 0,2 km/h (0 Bft)
13.09.2014 01:00 12,2 C 97 % 1018,1 hPa 0,0 l/m 0,0 km/h (0 Bft) N 0,00 h 0,000 mm 0,0 UV-I 0 W/m 11,8 C 12,2 C 0,1 km/h (0 Bft)
13.09.2014 02:00 12,4 C 98 % 1017,9 hPa 0,0 l/m 0,2 km/h (0 Bft) N-NO 0,00 h 0,000 mm 0,0 UV-I 0 W/m 12,0 C 12,4 C 0,7 km/h (0 Bft)
13.09.2014 03:00 12,4 C 97 % 1017,9 hPa 0,0 l/m 0,0 km/h (0 Bft) N 0,00 h 0,000 mm 0,0 UV-I 0 W/m 12,0 C 12,4 C 0,0 km/h (0 Bft)
13.09.2014 04:00 12,4 C 97 % 1017,9 hPa 0,0 l/m 0,1 km/h (0 Bft) O 0,00 h 0,000 mm 0,0 UV-I 0 W/m 11,9 C 12,4 C 0,4 km/h (0 Bft)
13.09.2014 05:00 12,4 C 97 % 1017,8 hPa 0,0 l/m 0,0 km/h (0 Bft) N 0,00 h 0,000 mm 0,0 UV-I 0 W/m 12,0 C 12,4 C 0,1 km/h (0 Bft)
13.09.2014 06:00 12,5 C 98 % 1017,7 hPa 0,0 l/m 0,0 km/h (0 Bft) N 0,00 h 0,000 mm 0,0 UV-I 0 W/m 12,2 C 12,5 C 0,0 km/h (0 Bft)
13.09.2014 07:00 12,7 C 98 % 1018,2 hPa 0,0 l/m 0,2 km/h (0 Bft) S-SO 0,00 h 0,000 mm 0,0 UV-I 8 W/m 12,4 C 12,7 C 0,4 km/h (0 Bft)
13.09.2014 08:00 13,0 C 98 % 1018,4 hPa 0,0 l/m 0,0 km/h (0 Bft) N 0,55 h 0,000 mm 0,0 UV-I 60 W/m 12,7 C 13,0 C 0,1 km/h (0 Bft)
13.09.2014 09:00 14,3 C 98 % 1018,7 hPa 0,0 l/m 0,6 km/h (0 Bft) NW 0,90 h 0,025 mm 0,7 UV-I 111 W/m 13,9 C 14,3 C 1,4 km/h (1 Bft)
13.09.2014 10:00 15,3 C 96 % 1018,8 hPa 0,8 l/m 1,2 km/h (1 Bft) N 0,93 h 0,051 mm 0,7 UV-I 103 W/m 14,7 C 15,3 C 3,0 km/h (1 Bft)
13.09.2014 11:00 15,7 C 97 % 1018,8 hPa 2,2 l/m 2,6 km/h (1 Bft) N 0,82 h 0,051 mm 1,7 UV-I 167 W/m 15,2 C 15,6 C 5,0 km/h (1 Bft)
13.09.2014 12:00 18,7 C 89 % 1018,3 hPa 0,0 l/m 8,4 km/h (2 Bft) N-NO 1,00 h 0,102 mm 3,6 UV-I 558 W/m 16,8 C 17,7 C 13,4 km/h (3 Bft)
13.09.2014 13:00 18,8 C 86 % 1018,1 hPa 0,0 l/m 9,7 km/h (2 Bft) N 1,00 h 0,330 mm 3,0 UV-I 357 W/m 16,5 C 17,5 C 14,4 km/h (3 Bft)
13.09.2014 14:00 17,9 C 87 % 1018,1 hPa 0,0 l/m 11,6 km/h (2 Bft) N 1,00 h 0,229 mm 1,5 UV-I 172 W/m 15,8 C 15,8 C 17,2 km/h (3 Bft)
13.09.2014 15:00 17,8 C 89 % 1018,0 hPa 0,0 l/m 10,9 km/h (2 Bft) N 1,00 h 0,127 mm 2,0 UV-I 327 W/m 15,9 C 15,9 C 16,5 km/h (3 Bft)
13.09.2014 16:00 18,6 C 85 % 1017,9 hPa 0,2 l/m 12,7 km/h (3 Bft) N 1,00 h 0,203 mm 1,5 UV-I 320 W/m 15,9 C 16,3 C 19,9 km/h (4 Bft)
13.09.2014 17:00 16,9 C 90 % 1018,4 hPa 0,0 l/m 8,0 km/h (2 Bft) N 0,52 h 0,203 mm 0,0 UV-I 53 W/m 15,2 C 15,9 C 11,9 km/h (2 Bft)
13.09.2014 18:00 16,5 C 90 % 1018,5 hPa 0,0 l/m 8,1 km/h (2 Bft) N 0,48 h 0,051 mm 0,0 UV-I 46 W/m 14,9 C 15,6 C 12,2 km/h (3 Bft)
13.09.2014 19:00 15,9 C 91 % 1018,7 hPa 0,0 l/m 5,1 km/h (1 Bft) N 0,00 h 0,025 mm 0,0 UV-I 17 W/m 14,5 C 15,7 C 8,4 km/h (2 Bft)
13.09.2014 20:00 15,5 C 92 % 1019,0 hPa 0,0 l/m 7,2 km/h (2 Bft) N 0,00 h 0,000 mm 0,0 UV-I 0 W/m 14,2 C 14,8 C 10,7 km/h (2 Bft)
13.09.2014 21:00 15,2 C 93 % 1019,2 hPa 0,0 l/m 6,2 km/h (2 Bft) N 0,00 h 0,000 mm 0,0 UV-I 0 W/m 14,0 C 14,6 C 9,0 km/h (2 Bft)
13.09.2014 22:00 14,9 C 93 % 1019,4 hPa 0,0 l/m 1,1 km/h (1 Bft) NW 0,00 h 0,000 mm 0,0 UV-I 0 W/m 13,8 C 14,9 C 2,4 km/h (1 Bft)
13.09.2014 23:00 14,8 C 94 % 1019,1 hPa 0,0 l/m 1,0 km/h (0 Bft) N 0,00 h 0,000 mm 0,0 UV-I 0 W/m 13,9 C 14,8 C 2,3 km/h (1 Bft)
14.09.2014 00:00 14,6 C 95 % 1018,9 hPa 0,0 l/m 1,4 km/h (1 Bft) N 0,00 h 0,000 mm 0,0 UV-I 0 W/m 13,8 C 14,6 C 2,8 km/h (1 Bft)
14.09.2014 01:00 14,1 C 94 % 1018,7 hPa 0,0 l/m 0,0 km/h (0 Bft) N 0,00 h 0,000 mm 0,0 UV-I 0 W/m 13,2 C 14,1 C 0,2 km/h (0 Bft)
14.09.2014 02:00 13,7 C 95 % 1018,6 hPa 0,0 l/m 0,0 km/h (0 Bft) N 0,00 h 0,000 mm 0,0 UV-I 0 W/m 13,0 C 13,7 C 0,1 km/h (0 Bft)
14.09.2014 03:00 13,7 C 96 % 1018,2 hPa 0,0 l/m 0,0 km/h (0 Bft) N 0,00 h 0,000 mm 0,0 UV-I 0 W/m 13,1 C 13,7 C 0,0 km/h (0 Bft)
14.09.2014 04:00 13,6 C 96 % 1018,1 hPa 0,0 l/m 0,0 km/h (0 Bft) N 0,00 h 0,000 mm 0,0 UV-I 0 W/m 13,0 C 13,6 C 0,0 km/h (0 Bft)
14.09.2014 05:00 13,4 C 96 % 1017,7 hPa 0,0 l/m 0,0 km/h (0 Bft) N 0,00 h 0,000 mm 0,0 UV-I 0 W/m 12,9 C 13,4 C 0,1 km/h (0 Bft)
14.09.2014 06:00 12,7 C 96 % 1017,5 hPa 0,0 l/m 0,0 km/h (0 Bft) N 0,00 h 0,000 mm 0,0 UV-I 7 W/m 12,0 C 12,7 C 0,1 km/h (0 Bft)
14.09.2014 07:00 12,1 C 96 % 1017,4 hPa 0,0 l/m 0,4 km/h (0 Bft) N 0,12 h 0,000 mm 0,0 UV-I 34 W/m 11,5 C 12,1 C 0,7 km/h (0 Bft)
14.09.2014 08:00 12,6 C 97 % 1017,2 hPa 0,0 l/m 0,1 km/h (0 Bft) N 0,60 h 0,025 mm 0,5 UV-I 53 W/m 12,1 C 12,6 C 0,3 km/h (0 Bft)
14.09.2014 09:00 13,8 C 98 % 1017,2 hPa 0,0 l/m 1,3 km/h (1 Bft) N-NW 1,00 h 0,025 mm 0,6 UV-I 79 W/m 13,5 C 13,8 C 2,5 km/h (1 Bft)
14.09.2014 10:00 15,3 C 94 % 1017,3 hPa 0,0 l/m 9,6 km/h (2 Bft) N 0,98 h 0,051 mm 0,6 UV-I 73 W/m 14,3 C 13,5 C 14,8 km/h (3 Bft)
14.09.2014 11:00 15,1 C 93 % 1017,3 hPa 0,2 l/m 10,4 km/h (2 Bft) N 0,70 h 0,051 mm 0,7 UV-I 60 W/m 14,0 C 13,1 C 16,3 km/h (3 Bft)
14.09.2014 12:00 15,0 C 93 % 1017,2 hPa 0,0 l/m 12,0 km/h (2 Bft) N 1,00 h 0,051 mm 1,2 UV-I 136 W/m 13,9 C 12,3 C 18,3 km/h (3 Bft)
14.09.2014 13:00 15,4 C 91 % 1017,2 hPa 0,0 l/m 12,3 km/h (3 Bft) N 1,00 h 0,076 mm 1,5 UV-I 174 W/m 14,0 C 12,7 C 18,0 km/h (3 Bft)
14.09.2014 14:00 16,1 C 88 % 1017,0 hPa 0,0 l/m 10,6 km/h (2 Bft) N 1,00 h 0,102 mm 1,7 UV-I 210 W/m 14,1 C 14,2 C 16,4 km/h (3 Bft)
14.09.2014 15:00 16,6 C 87 % 1016,9 hPa 0,0 l/m 8,8 km/h (2 Bft) N 1,00 h 0,127 mm 1,2 UV-I 150 W/m 14,4 C 15,3 C 13,7 km/h (3 Bft)
14.09.2014 16:00 16,5 C 87 % 1016,8 hPa 0,0 l/m 9,3 km/h (2 Bft) N 1,00 h 0,102 mm 1,0 UV-I 156 W/m 14,4 C 15,1 C 13,7 km/h (3 Bft)
14.09.2014 17:00 15,6 C 90 % 1016,7 hPa 0,0 l/m 7,1 km/h (2 Bft) N 0,00 h 0,102 mm 0,0 UV-I 35 W/m 13,9 C 14,9 C 11,3 km/h (2 Bft)
14.09.2014 18:00 15,1 C 92 % 1016,8 hPa 0,0 l/m 5,5 km/h (1 Bft) N 0,00 h 0,025 mm 0,0 UV-I 24 W/m 13,7 C 14,8 C 9,1 km/h (2 Bft)
14.09.2014 19:00 15,0 C 91 % 1016,9 hPa 0,0 l/m 4,8 km/h (1 Bft) N 0,00 h 0,025 mm 0,0 UV-I 9 W/m 13,6 C 14,9 C 8,0 km/h (2 Bft)
14.09.2014 20:00 14,7 C 92 % 1017,1 hPa 0,0 l/m 4,2 km/h (1 Bft) N 0,00 h 0,000 mm 0,0 UV-I 0 W/m 13,5 C 14,7 C 7,0 km/h (2 Bft)
14.09.2014 21:00 14,5 C 94 % 1017,2 hPa 0,0 l/m 2,2 km/h (1 Bft) NO 0,00 h 0,000 mm 0,0 UV-I 0 W/m 13,5 C 14,5 C 4,4 km/h (1 Bft)
14.09.2014 22:00 14,4 C 94 % 1017,2 hPa 0,0 l/m 1,2 km/h (1 Bft) N 0,00 h 0,000 mm 0,0 UV-I 0 W/m 13,4 C 14,4 C 2,7 km/h (1 Bft)
14.09.2014 23:00 14,3 C 94 % 1017,1 hPa 0,0 l/m 0,7 km/h (0 Bft) N 0,00 h 0,000 mm 0,0 UV-I 0 W/m 13,4 C 14,3 C 2,0 km/h (1 Bft)
Min-Datum _ 13.09.14 09.09.14 12.09.14 - 08.09.14 - - - - - 11.09.14 11.09.14 08.09.14
_ Min-Zeit 09:21 15:22 08:25 - 00:28 - - - - - 07:21 07:21 00:37
Minimum _ 0,0 C 50 % 1010,6 hPa - 0,0 km/h (0 Bft) - - - - - 4,2 C 5,2 C 0,0 km/h (0 Bft)
Max-Datum _ 08.09.14 13.09.14 13.09.14 12.09.14 12.09.14 - 08.09.14 09.09.14 08.09.14 13.09.14 08.09.14 08.09.14 13.09.14
_ Max-Zeit 16:43 02:26 22:38 17:08 12:54 - 14:42 13:00 12:34 12:35 15:53 16:30 16:31
Maximum _ 23,7 C 98 % 1019,6 hPa 7,6 l/m 20,9 km/h
N (4 Bft)
- 0,07 h 0,406 mm 5,5 UV-I 912 W/m 18,4 C 23,6 C 32,2 km/h
N (5 Bft)
Durchschnitt _ 14,4 C 88 % 1015,9 hPa #37,4 l/m 3,6 km/h (1 Bft) N #64:50 h #9,242 mm 1,4 UV-I 148 W/m 12,3 C 14,0 C 5,9 km/h (2 Bft)